createdAt,value
2022-10-07T00:00:53.763Z,88.31
2022-10-07T00:03:55.940Z,88.10
2022-10-07T00:06:57.964Z,87.80
2022-10-07T00:10:00.188Z,87.18
2022-10-07T00:13:02.633Z,88.29
2022-10-07T00:16:17.373Z,89.00
2022-10-07T00:19:20.057Z,89.01
2022-10-07T00:22:22.052Z,88.80
2022-10-07T00:25:24.185Z,88.96
2022-10-07T00:28:26.245Z,89.61
2022-10-07T00:31:31.232Z,89.67
2022-10-07T00:34:33.111Z,89.38
2022-10-07T00:37:36.241Z,89.88
2022-10-07T00:41:04.789Z,90.24
2022-10-07T00:44:34.750Z,90.51
2022-10-07T00:47:36.810Z,90.75
2022-10-07T00:50:38.791Z,91.76
2022-10-07T00:53:42.069Z,92.51
2022-10-07T00:56:46.512Z,93.58
2022-10-07T00:59:48.515Z,94.76
2022-10-07T01:02:51.669Z,93.88
2022-10-07T01:05:53.471Z,93.57
2022-10-07T01:08:55.578Z,92.75
2022-10-07T01:12:11.117Z,92.39
2022-10-07T01:15:32.545Z,92.84
2022-10-07T01:18:44.657Z,92.56
2022-10-07T01:22:19.947Z,92.34
2022-10-07T01:25:32.208Z,92.28
2022-10-07T01:28:55.231Z,92.58
2022-10-07T01:32:04.954Z,93.02
2022-10-07T01:35:12.998Z,92.67
2022-10-07T01:38:19.837Z,92.97
2022-10-07T01:41:23.777Z,92.82
2022-10-07T01:44:29.826Z,93.63
2022-10-07T01:47:33.550Z,95.05
2022-10-07T01:50:37.450Z,95.98
2022-10-07T01:54:10.571Z,96.31
2022-10-07T01:57:29.763Z,96.69
2022-10-07T02:00:38.480Z,95.96
2022-10-07T02:04:03.003Z,96.12
2022-10-07T02:07:17.861Z,96.49
2022-10-07T02:10:28.483Z,96.73
2022-10-07T02:14:07.318Z,96.71
2022-10-07T02:17:18.931Z,97.10
2022-10-07T02:20:25.432Z,97.36
2022-10-07T02:23:28.946Z,97.23
2022-10-07T02:26:34.290Z,98.72
2022-10-07T02:29:40.059Z,99.13
2022-10-07T02:32:48.258Z,99.41
2022-10-07T02:36:10.698Z,98.30
2022-10-07T02:39:15.548Z,97.60
2022-10-07T02:42:43.378Z,97.00
2022-10-07T02:46:07.440Z,97.34
2022-10-07T02:49:13.450Z,97.25
2022-10-07T02:52:19.266Z,96.76
2022-10-07T02:55:27.897Z,96.24
2022-10-07T02:58:29.934Z,95.74
2022-10-07T03:01:45.351Z,96.58
2022-10-07T03:04:49.042Z,96.67
2022-10-07T03:08:11.320Z,96.12
2022-10-07T03:11:16.170Z,95.94
2022-10-07T03:14:19.089Z,95.98
2022-10-07T03:17:21.777Z,95.73
2022-10-07T03:20:24.951Z,96.33
2022-10-07T03:23:31.376Z,95.95
2022-10-07T03:26:34.376Z,96.83
2022-10-07T03:29:36.858Z,97.22
2022-10-07T03:32:41.430Z,97.14
2022-10-07T03:35:45.076Z,96.65
2022-10-07T03:38:48.222Z,97.18
2022-10-07T03:41:51.533Z,96.41
2022-10-07T03:44:53.559Z,96.48
2022-10-07T03:47:56.670Z,96.46
2022-10-07T03:50:59.330Z,96.90
2022-10-07T03:54:03.823Z,98.31
2022-10-07T03:57:27.578Z,98.08
2022-10-07T04:00:31.019Z,98.10
2022-10-07T04:03:33.782Z,97.80
2022-10-07T04:06:35.940Z,97.59
2022-10-07T04:09:41.408Z,97.72
2022-10-07T04:12:47.404Z,98.11
2022-10-07T04:15:51.568Z,98.32
2022-10-07T04:18:58.855Z,97.24
2022-10-07T04:22:08.327Z,96.41
2022-10-07T04:25:31.134Z,96.11
2022-10-07T04:28:34.152Z,94.84
2022-10-07T04:31:43.820Z,95.47
2022-10-07T04:34:45.891Z,94.20
2022-10-07T04:37:54.197Z,93.82
2022-10-07T04:41:02.576Z,94.71
2022-10-07T04:44:04.453Z,95.48
2022-10-07T04:47:11.928Z,93.73
2022-10-07T04:50:14.366Z,93.91
2022-10-07T04:53:16.915Z,94.09
2022-10-07T04:56:21.765Z,94.41
2022-10-07T04:59:27.953Z,93.84
2022-10-07T05:02:31.976Z,93.02
2022-10-07T05:05:34.598Z,92.71
2022-10-07T05:08:36.972Z,92.36
2022-10-07T05:11:40.384Z,92.59
2022-10-07T05:14:48.144Z,92.39
2022-10-07T05:17:53.029Z,92.56
2022-10-07T05:20:56.007Z,92.63
2022-10-07T05:24:00.226Z,92.59
2022-10-07T05:27:15.740Z,93.15
2022-10-07T05:30:19.203Z,93.24
2022-10-07T05:33:21.194Z,92.86
2022-10-07T05:36:25.096Z,92.44
2022-10-07T05:39:30.087Z,92.77
2022-10-07T05:42:49.149Z,94.09
2022-10-07T05:46:01.575Z,95.24
2022-10-07T05:49:06.314Z,95.95
2022-10-07T05:52:10.498Z,95.84
2022-10-07T05:55:13.547Z,95.36
2022-10-07T05:58:15.786Z,97.23
2022-10-07T06:01:19.926Z,97.68
2022-10-07T06:04:22.342Z,97.10
2022-10-07T06:07:29.324Z,96.64
2022-10-07T06:10:56.695Z,94.80
2022-10-07T06:14:01.588Z,93.56
2022-10-07T06:17:06.100Z,92.72
2022-10-07T06:20:15.615Z,92.02
2022-10-07T06:23:23.893Z,91.42
2022-10-07T06:26:26.346Z,90.64
2022-10-07T06:29:34.924Z,90.71
2022-10-07T06:32:37.283Z,89.51
2022-10-07T06:35:39.843Z,89.23
2022-10-07T06:38:46.469Z,88.44
2022-10-07T06:41:48.894Z,88.62
2022-10-07T06:45:00.418Z,88.48
2022-10-07T06:48:02.747Z,88.27
2022-10-07T06:51:06.122Z,87.89
2022-10-07T06:54:13.007Z,88.02
2022-10-07T06:57:43.592Z,87.62
2022-10-07T07:00:39.463Z,87.59
2022-10-07T07:03:42.414Z,86.02
2022-10-07T07:06:44.977Z,85.24
2022-10-07T07:09:46.964Z,86.60
2022-10-07T07:12:49.029Z,85.63
2022-10-07T07:15:57.435Z,85.89
2022-10-07T07:19:03.312Z,84.87
2022-10-07T07:22:06.084Z,84.25
2022-10-07T07:25:10.104Z,83.05
2022-10-07T07:28:15.647Z,82.26
2022-10-07T07:31:18.430Z,81.49
2022-10-07T07:34:21.698Z,82.12
2022-10-07T07:37:24.913Z,80.72
2022-10-07T07:40:29.923Z,80.48
2022-10-07T07:43:36.144Z,81.58
2022-10-07T07:46:43.458Z,80.24
2022-10-07T07:49:46.352Z,81.64
2022-10-07T07:52:57.482Z,82.67
2022-10-07T07:56:02.543Z,81.91
2022-10-07T07:59:08.212Z,81.29
2022-10-07T08:02:12.706Z,83.33
2022-10-07T08:05:23.876Z,80.40
2022-10-07T08:08:31.221Z,79.33
2022-10-07T08:11:33.951Z,79.12
2022-10-07T08:14:38.372Z,78.83
2022-10-07T08:17:41.188Z,79.49
2022-10-07T08:20:43.412Z,79.98
2022-10-07T08:23:48.594Z,77.17
2022-10-07T08:26:56.393Z,76.04
2022-10-07T08:29:58.669Z,75.35
2022-10-07T08:33:01.618Z,74.13
2022-10-07T08:36:05.304Z,74.91
2022-10-07T08:39:07.539Z,74.53
2022-10-07T08:42:18.600Z,74.25
2022-10-07T08:45:31.922Z,74.59
2022-10-07T08:48:38.969Z,74.48
2022-10-07T08:51:50.772Z,73.88
2022-10-07T08:54:53.069Z,73.35
2022-10-07T08:58:04.531Z,74.23
2022-10-07T09:01:28.145Z,73.37
2022-10-07T09:05:15.500Z,72.32
2022-10-07T09:08:33.001Z,71.72
2022-10-07T09:11:36.144Z,71.66
2022-10-07T09:14:42.106Z,74.83
2022-10-07T09:17:54.491Z,71.27
2022-10-07T09:20:56.764Z,72.40
2022-10-07T09:24:23.604Z,71.82
2022-10-07T09:27:26.942Z,73.15
2022-10-07T09:30:29.585Z,70.63
2022-10-07T09:33:41.847Z,69.96
2022-10-07T09:37:09.801Z,69.90
2022-10-07T09:41:02.240Z,72.00
2022-10-07T09:44:03.929Z,69.85
2022-10-07T09:47:24.433Z,69.83
2022-10-07T09:50:31.411Z,71.55
2022-10-07T09:53:33.997Z,70.64
2022-10-07T09:56:45.765Z,68.75
2022-10-07T09:59:47.584Z,68.10
2022-10-07T10:03:06.299Z,68.03
2022-10-07T10:06:10.552Z,68.63
2022-10-07T10:09:18.127Z,66.68
2022-10-07T10:12:24.237Z,66.84
2022-10-07T10:15:39.543Z,66.46
2022-10-07T10:18:53.293Z,66.39
2022-10-07T10:21:57.747Z,68.01
2022-10-07T10:25:18.142Z,65.41
2022-10-07T10:28:39.304Z,69.26
2022-10-07T10:32:02.095Z,67.38
2022-10-07T10:35:16.353Z,66.31
2022-10-07T10:38:33.681Z,67.45
2022-10-07T10:41:50.746Z,68.02
2022-10-07T10:44:52.438Z,66.29
2022-10-07T10:48:03.190Z,68.83
2022-10-07T10:51:14.253Z,68.98
2022-10-07T10:54:55.488Z,67.96
2022-10-07T10:58:14.003Z,66.74
2022-10-07T11:01:24.016Z,66.84
2022-10-07T11:04:41.297Z,67.72
2022-10-07T11:07:52.400Z,70.92
2022-10-07T11:10:54.079Z,65.72
2022-10-07T11:14:04.835Z,67.56
2022-10-07T11:17:09.473Z,66.88
2022-10-07T11:20:20.125Z,65.61
2022-10-07T11:23:27.713Z,65.85
2022-10-07T11:26:36.300Z,66.38
2022-10-07T11:29:49.404Z,65.82
2022-10-07T11:32:57.324Z,64.68
2022-10-07T11:36:13.834Z,63.17
2022-10-07T11:39:15.801Z,63.46
2022-10-07T11:42:24.807Z,62.68
2022-10-07T11:45:33.980Z,61.88
2022-10-07T11:48:54.632Z,62.54
2022-10-07T11:52:02.053Z,63.47
2022-10-07T11:55:09.521Z,63.70
2022-10-07T11:58:27.041Z,64.12
2022-10-07T12:01:29.419Z,62.54
2022-10-07T12:04:31.258Z,62.67
2022-10-07T12:07:33.258Z,65.07
2022-10-07T12:10:35.738Z,61.34
2022-10-07T12:13:42.512Z,61.80
2022-10-07T12:16:55.247Z,59.97
2022-10-07T12:20:37.209Z,60.11
2022-10-07T12:23:40.729Z,59.35
2022-10-07T12:27:07.298Z,61.26
2022-10-07T12:30:49.164Z,58.19
2022-10-07T12:34:06.191Z,62.09
2022-10-07T12:37:43.421Z,62.52
2022-10-07T12:40:58.164Z,61.12
2022-10-07T12:44:06.276Z,62.07
2022-10-07T12:47:29.727Z,60.63
2022-10-07T12:50:33.677Z,61.41
2022-10-07T12:53:41.686Z,62.52
2022-10-07T12:56:44.822Z,62.94
2022-10-07T13:00:11.421Z,59.58
2022-10-07T13:03:28.633Z,60.16
2022-10-07T13:06:49.012Z,61.32
2022-10-07T13:10:09.296Z,58.29
2022-10-07T13:13:25.205Z,60.98
2022-10-07T13:16:27.441Z,56.84
2022-10-07T13:19:58.949Z,59.15
2022-10-07T13:23:23.208Z,57.41
2022-10-07T13:26:28.179Z,58.63
2022-10-07T13:29:35.581Z,57.85
2022-10-07T13:32:37.406Z,57.51
2022-10-07T13:35:39.941Z,57.15
2022-10-07T13:38:43.227Z,57.93
2022-10-07T13:41:50.751Z,58.82
2022-10-07T13:44:52.570Z,58.36
2022-10-07T13:47:56.125Z,59.58
2022-10-07T13:50:59.500Z,60.01
2022-10-07T13:54:05.739Z,57.42
2022-10-07T13:57:12.589Z,56.97
2022-10-07T14:00:16.398Z,58.48
2022-10-07T14:03:18.913Z,58.09
2022-10-07T14:06:37.950Z,58.12
2022-10-07T14:09:59.057Z,57.98
2022-10-07T14:13:07.365Z,56.77
2022-10-07T14:16:22.368Z,56.72
2022-10-07T14:19:24.175Z,56.03
2022-10-07T14:22:50.436Z,56.16
2022-10-07T14:25:55.024Z,53.37
2022-10-07T14:28:56.871Z,55.81
2022-10-07T14:32:38.481Z,53.84
2022-10-07T14:35:40.928Z,54.78
2022-10-07T14:38:44.566Z,53.85
2022-10-07T14:41:47.147Z,56.19
2022-10-07T14:44:49.982Z,57.19
2022-10-07T14:47:51.766Z,57.12
2022-10-07T14:50:53.597Z,53.78
2022-10-07T14:54:03.984Z,54.82
2022-10-07T14:57:06.155Z,51.59
2022-10-07T15:00:17.605Z,54.77
2022-10-07T15:03:19.385Z,54.48
2022-10-07T15:06:21.608Z,55.66
2022-10-07T15:09:23.608Z,55.64
2022-10-07T15:12:26.302Z,54.23
2022-10-07T15:15:29.070Z,53.93
2022-10-07T15:18:30.776Z,56.32
2022-10-07T15:21:32.599Z,55.91
2022-10-07T15:24:34.405Z,57.33
2022-10-07T15:27:37.885Z,56.92
2022-10-07T15:30:39.812Z,56.45
2022-10-07T15:33:42.690Z,58.22
2022-10-07T15:36:45.338Z,58.95
2022-10-07T15:39:47.049Z,59.02
2022-10-07T15:42:48.999Z,59.21
2022-10-07T15:45:51.668Z,60.13
2022-10-07T15:48:58.648Z,62.42
2022-10-07T15:52:01.560Z,63.83
2022-10-07T15:55:08.349Z,63.24
2022-10-07T15:58:10.094Z,63.82
2022-10-07T16:01:12.891Z,63.65
2022-10-07T16:04:15.262Z,64.55
2022-10-07T16:07:16.965Z,66.50
2022-10-07T16:10:18.919Z,67.87
2022-10-07T16:13:23.152Z,69.35
2022-10-07T16:16:27.061Z,70.94
2022-10-07T16:19:28.692Z,72.33
2022-10-07T16:22:31.207Z,72.90
2022-10-07T16:25:35.430Z,72.69
2022-10-07T16:29:07.194Z,72.75
2022-10-07T16:32:11.329Z,72.95
2022-10-07T16:35:13.164Z,73.58
2022-10-07T16:38:15.487Z,74.27
2022-10-07T16:41:18.395Z,74.70
2022-10-07T16:44:21.013Z,75.02
2022-10-07T16:47:22.928Z,76.26
2022-10-07T16:50:24.662Z,77.37
2022-10-07T16:53:27.250Z,77.55
2022-10-07T16:56:33.889Z,78.33
2022-10-07T16:59:35.576Z,79.18
2022-10-07T17:02:37.237Z,79.25
2022-10-07T17:05:39.442Z,79.43
2022-10-07T17:08:47.450Z,78.61
2022-10-07T17:11:49.950Z,79.02
2022-10-07T17:14:51.816Z,79.55
2022-10-07T17:17:53.759Z,79.89
2022-10-07T17:20:56.424Z,79.89
2022-10-07T17:23:58.312Z,80.58
2022-10-07T17:26:59.919Z,80.05
2022-10-07T17:30:02.750Z,80.04
2022-10-07T17:33:05.269Z,79.83
2022-10-07T17:36:08.701Z,80.08
2022-10-07T17:39:11.574Z,79.83
2022-10-07T17:42:13.185Z,79.49
2022-10-07T17:45:14.849Z,79.29
2022-10-07T17:48:16.665Z,79.84
2022-10-07T17:51:20.517Z,79.99
2022-10-07T17:54:23.975Z,81.44
2022-10-07T17:57:25.872Z,83.92
2022-10-07T18:00:28.057Z,84.17
2022-10-07T18:03:30.228Z,84.33
2022-10-07T18:06:34.499Z,84.34
2022-10-07T18:09:36.491Z,84.49
2022-10-07T18:12:56.976Z,84.93
2022-10-07T18:16:00.193Z,85.18
2022-10-07T18:19:02.452Z,84.94
2022-10-07T18:22:04.252Z,85.00
2022-10-07T18:25:06.861Z,85.22
2022-10-07T18:28:08.601Z,86.02
2022-10-07T18:31:12.402Z,86.77
2022-10-07T18:34:14.598Z,87.18
2022-10-07T18:37:17.028Z,87.09
2022-10-07T18:40:18.787Z,87.26
2022-10-07T18:43:20.976Z,86.76
2022-10-07T18:46:23.519Z,85.92
2022-10-07T18:49:25.510Z,85.87
2022-10-07T18:52:27.388Z,87.51
2022-10-07T18:55:33.446Z,87.71
2022-10-07T18:58:58.411Z,86.83
2022-10-07T19:02:03.874Z,86.73
2022-10-07T19:05:08.969Z,86.57
2022-10-07T19:08:10.871Z,87.16
2022-10-07T19:11:18.543Z,88.38
2022-10-07T19:14:20.922Z,87.98
2022-10-07T19:17:23.169Z,88.47
2022-10-07T19:20:25.177Z,87.91
2022-10-07T19:23:29.127Z,87.65
2022-10-07T19:26:36.128Z,87.94
2022-10-07T19:29:38.082Z,87.78
2022-10-07T19:32:39.994Z,87.96
2022-10-07T19:35:42.014Z,88.57
2022-10-07T19:38:45.882Z,89.26
2022-10-07T19:41:48.454Z,88.88
2022-10-07T19:44:50.339Z,89.45
2022-10-07T19:47:52.065Z,89.60
2022-10-07T19:50:58.042Z,89.93
2022-10-07T19:54:02.236Z,90.86
2022-10-07T19:57:04.247Z,91.30
2022-10-07T20:00:06.586Z,91.58
2022-10-07T20:03:14.189Z,92.42
2022-10-07T20:06:16.561Z,92.68
2022-10-07T20:09:20.309Z,92.99
2022-10-07T20:12:22.436Z,92.60
2022-10-07T20:15:24.150Z,92.73
2022-10-07T20:18:25.911Z,92.61
2022-10-07T20:21:28.916Z,92.89
2022-10-07T20:24:30.957Z,92.86
2022-10-07T20:27:34.175Z,92.33
2022-10-07T20:30:35.986Z,92.47
2022-10-07T20:33:42.595Z,92.07
2022-10-07T20:36:50.590Z,92.33
2022-10-07T20:40:11.067Z,91.52
2022-10-07T20:43:13.058Z,91.14
2022-10-07T20:46:14.794Z,91.33
2022-10-07T20:49:23.120Z,91.56
2022-10-07T20:52:27.153Z,91.28
2022-10-07T20:55:30.986Z,92.70
2022-10-07T20:58:37.517Z,93.58
2022-10-07T21:01:41.124Z,94.01
2022-10-07T21:04:43.508Z,93.97
2022-10-07T21:07:45.479Z,93.87
2022-10-07T21:10:48.759Z,94.13
2022-10-07T21:13:50.396Z,94.36
2022-10-07T21:16:53.670Z,94.78
2022-10-07T21:19:55.979Z,94.94
2022-10-07T21:22:58.244Z,95.07
2022-10-07T21:26:01.754Z,95.19
2022-10-07T21:29:05.115Z,94.99
2022-10-07T21:32:07.004Z,94.67
2022-10-07T21:35:10.209Z,93.89
2022-10-07T21:38:14.515Z,92.69
2022-10-07T21:41:20.651Z,92.02
2022-10-07T21:44:22.347Z,92.78
2022-10-07T21:47:24.527Z,93.50
2022-10-07T21:50:27.573Z,93.89
2022-10-07T21:53:30.510Z,94.40
2022-10-07T21:56:34.535Z,94.24
2022-10-07T21:59:36.728Z,94.04
2022-10-07T22:02:39.142Z,94.17
2022-10-07T22:05:41.219Z,93.99
2022-10-07T22:08:45.301Z,93.89
2022-10-07T22:11:47.604Z,94.27
2022-10-07T22:14:49.378Z,94.49
2022-10-07T22:17:51.252Z,94.71
2022-10-07T22:20:52.960Z,95.04
2022-10-07T22:23:59.703Z,94.67
2022-10-07T22:27:03.653Z,94.70
2022-10-07T22:30:06.963Z,94.77
2022-10-07T22:33:11.181Z,95.04
2022-10-07T22:36:16.450Z,94.26
2022-10-07T22:39:18.384Z,94.48
2022-10-07T22:42:20.188Z,94.31
2022-10-07T22:45:21.980Z,94.45
2022-10-07T22:48:24.819Z,94.30
2022-10-07T22:51:29.767Z,94.31
2022-10-07T22:54:31.494Z,94.57
2022-10-07T22:57:33.514Z,94.86
2022-10-07T23:00:35.378Z,94.99
2022-10-07T23:03:39.482Z,95.31
2022-10-07T23:06:41.396Z,95.40
2022-10-07T23:09:43.505Z,95.42
2022-10-07T23:12:45.499Z,94.77
2022-10-07T23:15:58.955Z,93.78
2022-10-07T23:19:00.977Z,92.98
2022-10-07T23:22:02.702Z,92.67
2022-10-07T23:25:04.854Z,90.94
2022-10-07T23:28:06.835Z,90.40
2022-10-07T23:31:11.103Z,90.63
2022-10-07T23:34:14.082Z,91.28
2022-10-07T23:37:15.664Z,90.02
2022-10-07T23:40:17.265Z,90.81
2022-10-07T23:43:19.033Z,91.11
2022-10-07T23:46:22.668Z,91.69
2022-10-07T23:49:24.816Z,91.87
2022-10-07T23:52:26.475Z,92.19
2022-10-07T23:55:28.598Z,91.22
2022-10-07T23:58:31.875Z,91.16
